CheckWX is a tool to help pilots better visualize weather data.  It is not intended as a substitute for an official pre-flight weather briefing.

21:03:21 UTC

EGJA METAR
Alderney Airport
Saint Anne, Guernsey
Current

3 hours ago

EGJA 161750Z 08008KT CAVOK 17/13 Q1018
Observed
Jul-16 @ 17:50 UTC
Wind
  • 080° at 8 KTS
Visibility
10,000+ meters
Flight Rules
VFR
Cloud Levels
  • Clear skies
Temperature
17°C / 63°F
Dewpoint
13°C / 55°F
Humidity
77%
Altimeter
30.06" Hg
Pressure
1017.92 hPa
Previous

4 hours ago

EGJA 161720Z 08009KT CAVOK 18/13 Q1018
Observed
Jul-16 @ 17:20 UTC
Wind
  • 080° at 9 KTS
Visibility
10,000+ meters
Flight Rules
VFR
Cloud Levels
  • Clear skies
Temperature
18°C / 64°F
Dewpoint
13°C / 55°F
Humidity
73%
Altimeter
30.06" Hg
Pressure
1017.92 hPa
Previous

5 hours ago

EGJA 161620Z 07010KT CAVOK 18/13 Q1019
Observed
Jul-16 @ 16:20 UTC
Wind
  • 070° at 10 KTS
Visibility
10,000+ meters
Flight Rules
VFR
Cloud Levels
  • Clear skies
Temperature
18°C / 64°F
Dewpoint
13°C / 55°F
Humidity
73%
Altimeter
30.09" Hg
Pressure
1018.92 hPa